createdAt,value
2022-12-05T00:01:42.442Z,35.80
2022-12-05T00:04:12.593Z,31.80
2022-12-05T00:06:42.125Z,32.20
2022-12-05T00:09:12.831Z,31.80
2022-12-05T00:11:43.037Z,30.40
2022-12-05T00:14:12.571Z,30.60
2022-12-05T00:16:42.435Z,35.60
2022-12-05T00:19:13.591Z,40.20
2022-12-05T00:24:13.831Z,28.90
2022-12-05T00:26:43.108Z,30.20
2022-12-05T00:29:11.625Z,32.20
2022-12-05T00:31:40.086Z,28.80
2022-12-05T00:34:08.367Z,29.70
2022-12-05T00:36:37.154Z,31.70
2022-12-05T00:39:08.923Z,32.40
2022-12-05T00:41:37.116Z,29.60
2022-12-05T00:44:05.568Z,30.00
2022-12-05T00:46:35.482Z,26.60
2022-12-05T00:49:05.561Z,23.90
2022-12-05T00:51:36.819Z,26.30
2022-12-05T00:54:08.659Z,25.40
2022-12-05T00:56:36.653Z,25.50
2022-12-05T00:59:06.107Z,24.10
2022-12-05T01:01:38.631Z,23.40
2022-12-05T01:04:13.295Z,23.60
2022-12-05T01:06:42.812Z,23.60
2022-12-05T01:09:17.317Z,23.90
2022-12-05T01:11:45.601Z,22.50
2022-12-05T01:14:15.251Z,25.00
2022-12-05T01:16:46.543Z,23.00
2022-12-05T01:19:18.665Z,25.70
2022-12-05T01:21:50.160Z,21.40
2022-12-05T01:24:22.043Z,20.30
2022-12-05T01:26:50.473Z,22.60
2022-12-05T01:29:20.442Z,18.50
2022-12-05T01:31:48.543Z,19.00
2022-12-05T01:34:18.564Z,19.30
2022-12-05T01:36:47.590Z,20.40
2022-12-05T01:39:15.962Z,18.80
2022-12-05T01:41:48.734Z,21.10
2022-12-05T01:44:16.495Z,19.10
2022-12-05T01:46:52.165Z,21.30
2022-12-05T01:49:31.339Z,20.50
2022-12-05T01:52:05.660Z,19.70
2022-12-05T01:54:36.997Z,21.10
2022-12-05T01:57:10.018Z,19.60
2022-12-05T01:59:42.239Z,22.50
2022-12-05T02:02:12.084Z,21.70
2022-12-05T02:05:09.628Z,19.00
2022-12-05T02:07:41.365Z,22.00
2022-12-05T02:10:10.163Z,19.30
2022-12-05T02:12:39.168Z,22.10
2022-12-05T02:15:14.853Z,20.10
2022-12-05T02:18:13.280Z,22.10
2022-12-05T02:20:41.093Z,18.40
2022-12-05T02:23:14.859Z,21.00
2022-12-05T02:26:17.528Z,19.00
2022-12-05T02:29:06.139Z,24.00
2022-12-05T02:31:53.968Z,27.30
2022-12-05T02:34:52.783Z,29.60
2022-12-05T02:37:36.233Z,30.90
2022-12-05T02:40:13.958Z,28.10
2022-12-05T02:43:02.276Z,25.70
2022-12-05T02:45:34.611Z,28.40
2022-12-05T02:48:03.862Z,28.30
2022-12-05T02:50:35.941Z,28.40
2022-12-05T02:53:10.763Z,28.00
2022-12-05T02:55:41.613Z,32.20
2022-12-05T02:58:15.857Z,27.30
2022-12-05T03:00:47.818Z,27.10
2022-12-05T03:03:19.583Z,28.10
2022-12-05T03:06:17.910Z,28.20
2022-12-05T03:08:50.961Z,27.60
2022-12-05T03:11:19.170Z,24.80
2022-12-05T03:13:55.296Z,33.10
2022-12-05T03:16:33.374Z,24.60
2022-12-05T03:19:25.790Z,48.50
2022-12-05T03:21:59.439Z,62.30
2022-12-05T03:24:28.275Z,63.60
2022-12-05T03:27:25.694Z,74.30
2022-12-05T03:30:02.756Z,72.70
2022-12-05T03:32:40.421Z,69.30
2022-12-05T03:35:08.177Z,82.80
2022-12-05T03:37:53.044Z,80.50
2022-12-05T03:40:23.839Z,69.40
2022-12-05T03:43:25.422Z,71.20
2022-12-05T03:46:01.174Z,67.40
2022-12-05T03:48:55.706Z,65.00
2022-12-05T03:51:28.858Z,62.70
2022-12-05T03:54:06.348Z,67.80
2022-12-05T03:56:44.118Z,74.50
2022-12-05T03:59:22.840Z,74.00
2022-12-05T04:01:53.130Z,61.80
2022-12-05T04:04:30.632Z,50.50
2022-12-05T04:07:04.587Z,47.90
2022-12-05T04:09:40.256Z,41.20
2022-12-05T04:12:15.461Z,35.60
2022-12-05T04:14:51.982Z,31.10
2022-12-05T04:17:40.704Z,33.80
2022-12-05T04:20:43.358Z,35.40
2022-12-05T04:23:11.432Z,37.90
2022-12-05T04:25:57.637Z,30.70
2022-12-05T04:28:38.727Z,36.40
2022-12-05T04:31:23.500Z,30.80
2022-12-05T04:34:07.785Z,36.60
2022-12-05T04:36:43.911Z,44.70
2022-12-05T04:39:23.853Z,60.50
2022-12-05T04:42:00.934Z,138.20
2022-12-05T04:44:35.392Z,141.10
2022-12-05T04:47:07.768Z,101.40
2022-12-05T04:49:36.814Z,91.80
2022-12-05T04:52:11.272Z,82.20
2022-12-05T04:54:51.130Z,67.50
2022-12-05T04:57:25.763Z,70.50
2022-12-05T04:59:54.595Z,71.80
2022-12-05T05:02:32.453Z,54.10
2022-12-05T05:05:02.908Z,48.60
2022-12-05T05:07:30.973Z,52.50
2022-12-05T05:09:59.320Z,49.50
2022-12-05T05:12:27.710Z,52.50
2022-12-05T05:14:55.764Z,46.90
2022-12-05T05:17:23.737Z,48.90
2022-12-05T05:19:51.678Z,49.80
2022-12-05T05:22:19.662Z,52.60
2022-12-05T05:24:47.514Z,58.90
2022-12-05T05:27:15.416Z,58.30
2022-12-05T05:29:43.430Z,62.70
2022-12-05T05:32:11.296Z,63.70
2022-12-05T05:34:39.374Z,61.90
2022-12-05T05:37:07.185Z,51.80
2022-12-05T05:39:35.133Z,45.60
2022-12-05T05:42:03.084Z,54.90
2022-12-05T05:44:30.960Z,54.30
2022-12-05T05:46:58.942Z,46.70
2022-12-05T05:49:26.710Z,45.30
2022-12-05T05:51:54.468Z,53.50
2022-12-05T05:54:22.379Z,45.90
2022-12-05T05:56:50.302Z,46.90
2022-12-05T05:59:20.533Z,39.20
2022-12-05T06:01:48.467Z,40.40
2022-12-05T06:04:16.529Z,44.70
2022-12-05T06:06:44.506Z,38.90
2022-12-05T06:09:12.576Z,43.40
2022-12-05T06:11:40.537Z,39.90
2022-12-05T06:14:09.026Z,42.10
2022-12-05T06:16:37.065Z,42.90
2022-12-05T06:19:04.987Z,44.70
2022-12-05T06:21:32.776Z,45.20
2022-12-05T06:24:01.279Z,49.40
2022-12-05T06:26:29.309Z,46.40
2022-12-05T06:28:57.265Z,46.90
2022-12-05T06:31:31.773Z,49.10
2022-12-05T06:34:04.927Z,51.30
2022-12-05T06:36:34.347Z,51.30
2022-12-05T06:39:03.878Z,48.60
2022-12-05T06:41:31.930Z,48.10
2022-12-05T06:44:02.163Z,45.20
2022-12-05T06:46:31.020Z,34.20
2022-12-05T06:49:00.064Z,38.40
2022-12-05T06:51:28.141Z,34.60
2022-12-05T06:53:56.508Z,39.20
2022-12-05T06:56:24.307Z,42.10
2022-12-05T06:58:53.629Z,41.20
2022-12-05T07:01:39.242Z,44.00
2022-12-05T07:04:34.195Z,44.60
2022-12-05T07:07:02.260Z,47.90
2022-12-05T07:09:48.908Z,51.80
2022-12-05T07:12:18.694Z,47.40
2022-12-05T07:14:49.399Z,48.00
2022-12-05T07:17:21.820Z,44.40
2022-12-05T07:19:51.173Z,45.60
2022-12-05T07:22:21.623Z,44.30
2022-12-05T07:24:53.087Z,46.80
2022-12-05T07:27:26.845Z,51.60
2022-12-05T07:29:57.050Z,53.40
2022-12-05T07:32:25.591Z,60.60
2022-12-05T07:34:55.470Z,50.80
2022-12-05T07:37:23.937Z,62.40
2022-12-05T07:39:53.515Z,49.50
2022-12-05T07:42:21.533Z,42.50
2022-12-05T07:44:49.439Z,47.30
2022-12-05T07:47:17.327Z,44.40
2022-12-05T07:49:45.202Z,46.00
2022-12-05T07:52:13.090Z,44.60
2022-12-05T07:54:41.181Z,48.10
2022-12-05T07:57:09.221Z,46.50
2022-12-05T07:59:37.300Z,50.70
2022-12-05T08:02:05.311Z,51.30
2022-12-05T08:04:33.364Z,54.50
2022-12-05T08:07:01.167Z,61.40
2022-12-05T08:09:29.064Z,55.10
2022-12-05T08:11:57.031Z,51.80
2022-12-05T08:14:25.313Z,54.20
2022-12-05T08:16:53.605Z,51.90
2022-12-05T08:19:21.647Z,54.50
2022-12-05T08:21:49.639Z,48.40
2022-12-05T08:24:17.462Z,48.70
2022-12-05T08:26:45.323Z,42.00
2022-12-05T08:29:15.856Z,35.70
2022-12-05T08:31:47.540Z,36.90
2022-12-05T08:34:17.846Z,36.20
2022-12-05T08:36:46.187Z,42.30
2022-12-05T08:39:16.687Z,36.50
2022-12-05T08:41:46.350Z,37.30
2022-12-05T08:44:18.738Z,38.10
2022-12-05T08:46:50.053Z,27.70
2022-12-05T08:49:19.371Z,26.30
2022-12-05T08:51:47.537Z,25.60
2022-12-05T08:54:16.602Z,28.10
2022-12-05T08:56:44.812Z,31.50
2022-12-05T08:59:31.566Z,29.30
2022-12-05T09:01:59.541Z,38.50
2022-12-05T09:04:27.552Z,47.80
2022-12-05T09:06:55.490Z,54.60
2022-12-05T09:09:23.474Z,56.40
2022-12-05T09:11:51.440Z,56.80
2022-12-05T09:14:19.491Z,54.10
2022-12-05T09:16:47.885Z,53.50
2022-12-05T09:19:25.068Z,48.00
2022-12-05T09:21:53.617Z,35.40
2022-12-05T09:24:21.501Z,32.90
2022-12-05T09:26:49.690Z,31.60
2022-12-05T09:29:18.275Z,34.40
2022-12-05T09:31:48.931Z,36.80
2022-12-05T09:34:18.643Z,31.40
2022-12-05T09:36:55.791Z,30.10
2022-12-05T09:39:30.275Z,33.50
2022-12-05T09:42:18.595Z,34.00
2022-12-05T09:44:55.541Z,35.80
2022-12-05T09:47:26.268Z,38.80
2022-12-05T09:50:00.270Z,44.40
2022-12-05T09:52:41.521Z,47.70
2022-12-05T09:55:14.728Z,46.10
2022-12-05T09:57:49.063Z,42.60
2022-12-05T10:00:17.667Z,46.00
2022-12-05T10:03:00.815Z,45.40
2022-12-05T10:05:43.917Z,46.90
2022-12-05T10:08:39.787Z,44.50
2022-12-05T10:11:23.691Z,46.90
2022-12-05T10:14:23.693Z,48.40
2022-12-05T10:16:57.198Z,54.20
2022-12-05T10:19:38.835Z,54.30
2022-12-05T10:22:20.650Z,59.50
2022-12-05T10:24:56.354Z,58.70
2022-12-05T10:27:38.256Z,55.00
2022-12-05T10:30:17.207Z,50.30
2022-12-05T10:32:57.473Z,49.10
2022-12-05T10:35:37.696Z,46.30
2022-12-05T10:38:11.156Z,47.80
2022-12-05T10:40:42.922Z,44.60
2022-12-05T10:43:14.653Z,44.90
2022-12-05T10:45:47.928Z,43.00
2022-12-05T10:48:18.513Z,50.00
2022-12-05T10:50:49.353Z,47.60
2022-12-05T10:53:23.125Z,47.20
2022-12-05T10:56:28.082Z,39.10
2022-12-05T10:58:56.450Z,45.00
2022-12-05T11:01:26.435Z,43.30
2022-12-05T11:04:01.024Z,44.60
2022-12-05T11:06:31.843Z,44.30
2022-12-05T11:09:13.627Z,50.30
2022-12-05T11:11:41.895Z,43.10
2022-12-05T11:14:31.401Z,41.10
2022-12-05T11:17:01.883Z,42.50
2022-12-05T11:19:36.129Z,38.90
2022-12-05T11:22:05.663Z,38.40
2022-12-05T11:24:35.373Z,42.10
2022-12-05T11:27:15.923Z,39.30
2022-12-05T11:30:24.198Z,35.20
2022-12-05T11:32:52.354Z,31.10
2022-12-05T11:35:28.833Z,29.40
2022-12-05T11:38:05.492Z,38.30
2022-12-05T11:41:10.734Z,28.20
2022-12-05T11:44:11.784Z,27.70
2022-12-05T11:47:06.114Z,24.40
2022-12-05T11:49:41.858Z,24.20
2022-12-05T11:52:48.470Z,24.70
2022-12-05T11:55:23.903Z,30.40
2022-12-05T11:58:20.812Z,37.20
2022-12-05T12:00:51.424Z,32.50
2022-12-05T12:03:43.045Z,29.70
2022-12-05T12:06:20.643Z,33.00
2022-12-05T12:09:07.199Z,31.50
2022-12-05T12:11:48.513Z,33.10
2022-12-05T12:14:25.274Z,26.30
2022-12-05T12:16:59.211Z,25.30
2022-12-05T12:20:22.292Z,30.60
2022-12-05T12:23:21.452Z,24.60
2022-12-05T12:26:24.870Z,26.90
2022-12-05T12:29:02.626Z,27.00
2022-12-05T12:31:48.821Z,23.20
2022-12-05T12:34:34.713Z,24.50
2022-12-05T12:37:08.313Z,28.20
2022-12-05T12:39:53.588Z,24.90
2022-12-05T12:42:29.543Z,24.80
2022-12-05T12:45:06.783Z,26.00
2022-12-05T12:48:19.776Z,30.70
2022-12-05T12:50:53.249Z,24.90
2022-12-05T12:53:34.377Z,24.20
2022-12-05T12:56:18.963Z,26.00
2022-12-05T12:58:55.643Z,29.80
2022-12-05T13:01:29.375Z,28.30
2022-12-05T13:04:02.944Z,25.60
2022-12-05T13:06:55.178Z,28.60
2022-12-05T13:09:34.909Z,26.70
2022-12-05T13:12:10.785Z,26.50
2022-12-05T13:14:49.847Z,29.60
2022-12-05T13:17:20.791Z,26.80
2022-12-05T13:22:23.561Z,27.80
2022-12-05T13:24:53.502Z,33.50
2022-12-05T13:27:30.412Z,32.50
2022-12-05T13:30:01.662Z,33.00
2022-12-05T13:32:34.916Z,31.10
2022-12-05T13:35:12.331Z,32.40
2022-12-05T13:38:07.113Z,36.60
2022-12-05T13:40:56.822Z,35.10
2022-12-05T13:43:29.013Z,33.10
2022-12-05T13:46:02.875Z,34.80
2022-12-05T13:48:34.178Z,29.60
2022-12-05T13:51:03.911Z,34.80
2022-12-05T13:53:37.674Z,36.60
2022-12-05T13:56:14.524Z,39.10
2022-12-05T13:58:46.950Z,45.40
2022-12-05T14:01:26.944Z,40.30
2022-12-05T14:03:58.587Z,51.80
2022-12-05T14:06:36.117Z,40.20
2022-12-05T14:09:19.461Z,40.30
2022-12-05T14:12:15.121Z,39.60
2022-12-05T14:14:55.518Z,37.90
2022-12-05T14:17:28.528Z,36.50
2022-12-05T14:20:20.975Z,32.80
2022-12-05T14:22:54.989Z,39.00
2022-12-05T14:25:31.233Z,36.10
2022-12-05T14:28:11.810Z,41.10
2022-12-05T14:31:01.448Z,32.80
2022-12-05T14:33:29.794Z,41.90
2022-12-05T14:36:09.071Z,41.50
2022-12-05T14:38:40.172Z,39.30
2022-12-05T14:41:26.330Z,38.20
2022-12-05T14:43:56.670Z,33.20
2022-12-05T14:46:32.600Z,45.80
2022-12-05T14:49:38.544Z,40.10
2022-12-05T14:52:14.806Z,47.10
2022-12-05T14:54:43.972Z,36.40
2022-12-05T14:57:16.421Z,40.60
2022-12-05T15:00:02.813Z,34.80
2022-12-05T15:02:36.352Z,31.70
2022-12-05T15:05:28.060Z,33.90
2022-12-05T15:08:00.283Z,25.10
2022-12-05T15:10:38.289Z,26.30
2022-12-05T15:13:12.216Z,28.90
2022-12-05T15:15:40.242Z,27.30
2022-12-05T15:18:25.131Z,25.60
2022-12-05T15:21:17.813Z,24.60
2022-12-05T15:23:45.833Z,24.60
2022-12-05T15:29:28.295Z,23.80
2022-12-05T15:31:56.957Z,28.40
2022-12-05T15:34:39.749Z,32.30
2022-12-05T15:37:27.044Z,36.20
2022-12-05T15:39:58.160Z,38.00
2022-12-05T15:42:37.802Z,36.90
2022-12-05T15:45:12.033Z,34.00
2022-12-05T15:48:11.639Z,36.70
2022-12-05T15:50:44.249Z,41.20
2022-12-05T15:53:27.906Z,43.30
2022-12-05T15:56:13.885Z,40.10
2022-12-05T15:59:09.196Z,41.20
2022-12-05T16:01:44.891Z,44.50
2022-12-05T16:04:29.382Z,45.50
2022-12-05T16:07:04.073Z,42.50
2022-12-05T16:09:34.247Z,42.50
2022-12-05T16:12:05.644Z,38.80
2022-12-05T16:17:26.141Z,40.00
2022-12-05T16:20:09.555Z,39.60
2022-12-05T16:22:44.411Z,40.30
2022-12-05T16:25:21.657Z,35.60
2022-12-05T16:28:17.749Z,38.60
2022-12-05T16:31:17.734Z,46.40
2022-12-05T16:33:45.969Z,44.80
2022-12-05T16:36:21.877Z,52.90
2022-12-05T16:38:49.954Z,53.90
2022-12-05T16:41:17.818Z,49.30
2022-12-05T16:43:46.068Z,43.80
2022-12-05T16:46:14.100Z,45.40
2022-12-05T16:48:44.707Z,38.20
2022-12-05T16:51:25.961Z,39.50
2022-12-05T16:53:55.567Z,37.00
2022-12-05T16:56:33.421Z,43.20
2022-12-05T16:59:06.661Z,38.90
2022-12-05T17:01:38.904Z,39.10
2022-12-05T17:04:11.209Z,38.00
2022-12-05T17:06:39.491Z,37.80
2022-12-05T17:09:07.365Z,41.70
2022-12-05T17:11:38.974Z,34.00
2022-12-05T17:14:09.809Z,37.50
2022-12-05T17:16:37.765Z,35.70
2022-12-05T17:19:05.682Z,32.60
2022-12-05T17:21:34.492Z,36.20
2022-12-05T17:24:02.647Z,35.90
2022-12-05T17:26:30.623Z,35.70
2022-12-05T17:28:58.398Z,35.30
2022-12-05T17:31:26.495Z,36.80
2022-12-05T17:33:54.817Z,36.00
2022-12-05T17:36:23.091Z,36.30
2022-12-05T17:38:51.094Z,34.70
2022-12-05T17:41:24.038Z,38.90
2022-12-05T17:43:52.013Z,35.80
2022-12-05T17:46:22.728Z,38.20
2022-12-05T17:48:52.019Z,36.20
2022-12-05T17:51:22.531Z,38.70
2022-12-05T17:53:53.043Z,38.10
2022-12-05T17:56:21.676Z,38.40
2022-12-05T17:58:50.705Z,42.70
2022-12-05T18:01:20.456Z,41.70
2022-12-05T18:03:49.387Z,45.80
2022-12-05T18:06:18.018Z,44.10
2022-12-05T18:08:45.995Z,51.00
2022-12-05T18:11:14.964Z,48.10
2022-12-05T18:13:43.030Z,48.90
2022-12-05T18:16:12.318Z,51.50
2022-12-05T18:18:40.446Z,48.50
2022-12-05T18:21:12.513Z,48.90
2022-12-05T18:23:41.392Z,52.00
2022-12-05T18:26:10.752Z,51.50
2022-12-05T18:28:39.845Z,44.90
2022-12-05T18:31:11.083Z,45.30
2022-12-05T18:33:39.610Z,44.70
2022-12-05T18:36:10.326Z,45.90
2022-12-05T18:38:39.124Z,38.00
2022-12-05T18:41:07.216Z,43.60
2022-12-05T18:43:35.891Z,44.40
2022-12-05T18:46:05.338Z,39.30
2022-12-05T18:48:40.125Z,35.70
2022-12-05T18:51:20.926Z,41.60
2022-12-05T18:53:52.573Z,48.90
2022-12-05T18:56:25.076Z,42.20
2022-12-05T18:58:57.734Z,54.50
2022-12-05T19:01:27.815Z,52.10
2022-12-05T19:03:57.583Z,48.20
2022-12-05T19:06:29.684Z,43.70
2022-12-05T19:09:05.408Z,44.30
2022-12-05T19:11:35.351Z,42.10
2022-12-05T19:14:04.830Z,49.00
2022-12-05T19:16:35.150Z,51.30
2022-12-05T19:19:05.357Z,48.60
2022-12-05T19:21:35.174Z,48.70
2022-12-05T19:24:06.224Z,44.50
2022-12-05T19:29:03.427Z,37.30
2022-12-05T19:31:32.160Z,41.70
2022-12-05T19:34:02.220Z,43.80
2022-12-05T19:36:35.347Z,42.60
2022-12-05T19:39:09.867Z,41.50
2022-12-05T19:41:38.273Z,51.20
2022-12-05T19:44:06.209Z,46.50
2022-12-05T19:46:34.563Z,41.70
2022-12-05T19:49:08.648Z,40.00
2022-12-05T19:51:37.611Z,43.00
2022-12-05T19:54:07.729Z,39.50
2022-12-05T19:56:37.149Z,43.20
2022-12-05T19:59:06.748Z,38.60
2022-12-05T20:01:40.522Z,40.40
2022-12-05T20:04:11.448Z,38.60
2022-12-05T20:06:42.870Z,43.70
2022-12-05T20:09:13.257Z,41.20
2022-12-05T20:11:43.835Z,40.90
2022-12-05T20:14:14.252Z,39.10
2022-12-05T20:16:42.470Z,39.70
2022-12-05T20:19:10.461Z,36.90
2022-12-05T20:21:41.729Z,35.40
2022-12-05T20:24:10.924Z,36.80
2022-12-05T20:26:42.450Z,40.80
2022-12-05T20:31:41.616Z,42.60
2022-12-05T20:34:13.781Z,43.60
2022-12-05T20:36:43.093Z,42.90
2022-12-05T20:39:16.839Z,40.60
2022-12-05T20:41:45.730Z,42.00
2022-12-05T20:44:16.100Z,45.40
2022-12-05T20:46:44.416Z,37.30
2022-12-05T20:49:13.901Z,38.80
2022-12-05T20:51:43.787Z,40.70
2022-12-05T20:54:13.299Z,37.10
2022-12-05T20:56:41.508Z,39.30
2022-12-05T20:59:12.994Z,43.00
2022-12-05T21:01:42.450Z,41.10
2022-12-05T21:04:13.073Z,45.60
2022-12-05T21:06:43.781Z,38.00
2022-12-05T21:09:18.431Z,41.30
2022-12-05T21:11:46.398Z,44.20
2022-12-05T21:14:19.351Z,39.40
2022-12-05T21:16:47.679Z,40.70
2022-12-05T21:19:16.307Z,37.10
2022-12-05T21:21:44.197Z,38.40
2022-12-05T21:24:12.767Z,38.60
2022-12-05T21:26:40.601Z,38.60
2022-12-05T21:29:10.569Z,39.10
2022-12-05T21:31:40.732Z,41.20
2022-12-05T21:34:15.166Z,39.20
2022-12-05T21:36:43.816Z,39.50
2022-12-05T21:39:12.388Z,40.30
2022-12-05T21:41:40.506Z,37.30
2022-12-05T21:44:08.587Z,42.00
2022-12-05T21:46:36.964Z,37.60
2022-12-05T21:49:05.029Z,36.00
2022-12-05T21:51:33.032Z,36.60
2022-12-05T21:54:00.864Z,35.60
2022-12-05T21:56:28.730Z,35.30
2022-12-05T21:58:56.622Z,37.80
2022-12-05T22:01:27.813Z,36.60
2022-12-05T22:04:01.285Z,36.00
2022-12-05T22:06:33.482Z,38.00
2022-12-05T22:09:02.477Z,33.70
2022-12-05T22:11:30.533Z,37.80
2022-12-05T22:13:58.521Z,37.00
2022-12-05T22:16:32.751Z,38.60
2022-12-05T22:19:02.205Z,36.90
2022-12-05T22:21:34.124Z,33.20
2022-12-05T22:24:02.214Z,38.50
2022-12-05T22:26:30.171Z,35.90
2022-12-05T22:28:58.174Z,38.60
2022-12-05T22:31:26.183Z,38.60
2022-12-05T22:33:54.462Z,40.80
2022-12-05T22:36:24.295Z,38.60
2022-12-05T22:38:52.377Z,37.20
2022-12-05T22:41:23.177Z,37.10
2022-12-05T22:43:58.026Z,38.30
2022-12-05T22:46:28.000Z,42.70
2022-12-05T22:48:56.567Z,38.40
2022-12-05T22:51:26.757Z,38.80
2022-12-05T22:53:54.588Z,37.80
2022-12-05T22:56:26.003Z,39.20
2022-12-05T22:58:59.143Z,37.40
2022-12-05T23:01:33.134Z,35.20
2022-12-05T23:04:04.056Z,39.10
2022-12-05T23:06:33.724Z,38.70
2022-12-05T23:09:02.839Z,37.50
2022-12-05T23:11:31.010Z,38.80
2022-12-05T23:14:02.220Z,39.00
2022-12-05T23:16:32.965Z,36.90
2022-12-05T23:19:03.850Z,41.00
2022-12-05T23:21:34.667Z,40.20
2022-12-05T23:26:36.032Z,33.90
2022-12-05T23:29:04.704Z,38.30
2022-12-05T23:31:33.311Z,38.50
2022-12-05T23:34:03.630Z,37.40
2022-12-05T23:36:33.816Z,36.50
2022-12-05T23:39:02.198Z,35.80
2022-12-05T23:41:30.075Z,35.90
2022-12-05T23:43:58.094Z,30.00
2022-12-05T23:46:28.058Z,31.80
2022-12-05T23:48:56.602Z,32.60
2022-12-05T23:51:27.424Z,34.00
2022-12-05T23:53:58.309Z,34.50
2022-12-05T23:56:29.358Z,32.70
2022-12-05T23:58:58.311Z,31.70
